Time;durP1;ratioP1;P1;durP2;ratioP2;P2;SDS_P1;SDS_P2;PMS_P1;PMS_P2;Temp;Humidity;BMP_temperature;BMP_pressure;BME280_temperature;BME280_humidity;BME280_pressure;Samples;Min_cycle;Max_cycle;Signal;HPM_P1;HPM_P2
2022/07/11 00:02:14;;;;;;;1.42;0.90;;;;;;;16.42;47.32;93875.06;4996559;28;20125;-81
2022/07/11 00:04:40;;;;;;;1.70;1.27;;;;;;;16.20;47.45;93879.88;5007328;28;20029;-81
2022/07/11 00:07:06;;;;;;;1.30;1.10;;;;;;;16.13;47.88;93874.34;4994008;28;20026;-81
2022/07/11 00:09:32;;;;;;;1.33;1.23;;;;;;;16.15;47.87;93868.63;4995271;28;20025;-82
2022/07/11 00:11:58;;;;;;;1.30;0.90;;;;;;;16.21;47.76;93870.72;4994826;28;20029;-81
2022/07/11 00:14:24;;;;;;;2.03;1.20;;;;;;;16.20;47.89;93893.28;4994262;28;20433;-81
2022/07/11 00:16:51;;;;;;;1.65;1.20;;;;;;;16.35;48.21;93902.50;4994050;28;20501;-81
2022/07/11 00:19:16;;;;;;;1.17;1.00;;;;;;;16.24;47.89;93899.53;4992458;28;20026;-81
2022/07/11 00:21:42;;;;;;;1.33;1.00;;;;;;;16.20;48.13;93909.38;4992224;28;20655;-82
2022/07/11 00:24:07;;;;;;;1.55;1.10;;;;;;;15.95;48.47;93891.09;4995437;28;20029;-82
2022/07/11 00:26:34;;;;;;;1.00;0.90;;;;;;;16.04;48.46;93895.19;4992883;28;20018;-82
2022/07/11 00:28:59;;;;;;;2.63;0.98;;;;;;;16.11;48.26;93891.91;4993369;28;20026;-82
2022/07/11 00:31:25;;;;;;;5.00;1.08;;;;;;;16.23;48.58;93908.69;4999538;28;20037;-82
2022/07/11 00:33:50;;;;;;;1.40;1.05;;;;;;;16.39;47.86;93899.88;4994828;28;20405;-82
2022/07/11 00:36:16;;;;;;;1.33;1.17;;;;;;;16.36;48.43;93914.00;4993138;28;20519;-81
2022/07/11 00:38:41;;;;;;;1.75;1.10;;;;;;;16.25;48.16;93884.97;5007883;28;20050;-81
2022/07/11 00:41:07;;;;;;;1.20;1.10;;;;;;;16.63;47.83;93910.44;4993757;28;20422;-81
2022/07/11 00:43:39;;;;;;;1.58;0.98;;;;;;;16.63;47.50;93902.38;4993336;28;20033;-82
2022/07/11 00:46:06;;;;;;;1.50;1.10;;;;;;;16.37;47.83;93886.06;4998753;28;20482;-82
2022/07/11 00:48:32;;;;;;;2.03;1.10;;;;;;;16.38;47.73;93882.25;4993962;28;20022;-82
2022/07/11 00:50:59;;;;;;;1.33;1.08;;;;;;;16.50;48.04;93879.47;4993476;28;20018;-82
2022/07/11 00:53:25;;;;;;;1.38;1.10;;;;;;;16.31;47.85;93891.69;4989762;28;20030;-82
2022/07/11 00:55:55;;;;;;;1.10;1.00;;;;;;;16.45;47.46;93882.41;4993008;28;20034;-81
2022/07/11 00:58:21;;;;;;;1.30;1.08;;;;;;;16.48;47.58;93914.69;4992803;28;20606;-82
2022/07/11 01:00:47;;;;;;;1.15;1.00;;;;;;;16.37;47.38;93899.47;4999044;28;20030;-83
2022/07/11 01:03:13;;;;;;;1.63;0.90;;;;;;;16.03;47.85;93874.88;4993127;28;20469;-82
2022/07/11 01:05:39;;;;;;;1.17;1.08;;;;;;;16.24;47.42;93885.31;4994183;28;21035;-81
2022/07/11 01:08:04;;;;;;;1.52;1.08;;;;;;;16.09;48.02;93880.72;4992878;28;20125;-82
2022/07/11 01:10:30;;;;;;;1.50;1.20;;;;;;;15.91;47.84;93880.28;4994578;28;20696;-83
2022/07/11 01:12:56;;;;;;;2.85;1.20;;;;;;;16.06;47.70;93874.16;4991638;28;20080;-82
2022/07/11 01:15:22;;;;;;;5.30;1.20;;;;;;;16.04;47.63;93862.97;4993726;28;20033;-82
2022/07/11 01:17:47;;;;;;;1.98;1.65;;;;;;;15.99;47.20;93871.28;5007742;28;20856;-83
2022/07/11 01:20:13;;;;;;;1.20;1.00;;;;;;;16.07;47.57;93891.81;4992751;28;20109;-82
2022/07/11 01:22:50;;;;;;;2.15;1.20;;;;;;;16.19;47.58;93905.16;4993265;28;20088;-81
2022/07/11 01:25:34;;;;;;;1.67;0.90;;;;;;;16.22;47.09;93893.72;4997343;28;20073;-82
2022/07/11 01:28:01;;;;;;;1.02;0.93;;;;;;;16.00;47.17;93899.69;4993016;28;20141;-82
2022/07/11 01:30:28;;;;;;;1.27;0.90;;;;;;;16.01;47.62;93906.59;4999107;28;20449;-83
2022/07/11 01:32:54;;;;;;;1.50;0.70;;;;;;;15.81;47.08;93883.47;4993510;28;20027;-83
2022/07/11 01:35:20;;;;;;;0.80;0.80;;;;;;;16.09;47.31;93907.56;4991854;28;20030;-83
2022/07/11 01:37:46;;;;;;;1.73;1.13;;;;;;;15.85;47.48;93862.88;4991992;28;20033;-83
2022/07/11 01:40:12;;;;;;;1.92;1.15;;;;;;;16.20;46.74;93904.03;4993729;28;20474;-82
2022/07/11 01:42:37;;;;;;;1.77;1.27;;;;;;;15.64;47.31;93860.44;4992499;28;20018;-83
2022/07/11 01:45:03;;;;;;;4.95;1.70;;;;;;;15.90;47.68;93897.50;4993067;28;20176;-82
2022/07/11 01:47:28;;;;;;;1.27;1.15;;;;;;;15.88;47.22;93878.31;4992355;28;20022;-83
2022/07/11 01:49:55;;;;;;;1.15;1.05;;;;;;;16.16;46.81;93887.06;4992962;28;20561;-82
2022/07/11 01:52:20;;;;;;;1.40;1.10;;;;;;;16.37;46.70;93907.53;4991901;28;20532;-82
2022/07/11 01:54:46;;;;;;;0.80;0.80;;;;;;;16.27;46.47;93903.44;4998590;28;20038;-82
2022/07/11 01:57:11;;;;;;;1.55;1.00;;;;;;;16.04;47.26;93903.22;4993268;28;20041;-83
2022/07/11 01:59:37;;;;;;;1.02;0.90;;;;;;;15.81;47.46;93897.66;4992736;28;20089;-82
2022/07/11 02:02:02;;;;;;;1.10;1.00;;;;;;;16.22;47.40;93907.16;4991961;28;20141;-82
2022/07/11 02:04:28;;;;;;;0.90;0.80;;;;;;;16.10;47.05;93906.44;4992594;28;20022;-81
2022/07/11 02:06:53;;;;;;;1.33;0.93;;;;;;;16.07;47.11;93907.13;4992659;28;20034;-82
2022/07/11 02:09:19;;;;;;;1.10;1.00;;;;;;;15.69;47.85;93905.00;4992182;28;20144;-82
2022/07/11 02:11:44;;;;;;;1.20;0.93;;;;;;;15.41;48.53;93905.75;4993660;28;20021;-82
2022/07/11 02:14:09;;;;;;;1.55;0.90;;;;;;;15.42;48.15;93880.50;4989949;28;20368;-83
2022/07/11 02:16:35;;;;;;;1.73;1.10;;;;;;;15.55;48.48;93913.41;4990950;28;20026;-82
2022/07/11 02:19:00;;;;;;;2.45;0.90;;;;;;;15.11;48.61;93880.38;4993013;28;20029;-83
2022/07/11 02:21:25;;;;;;;1.00;0.80;;;;;;;15.20;48.86;93912.41;4993165;28;20177;-83
2022/07/11 02:23:51;;;;;;;0.80;0.80;;;;;;;14.99;49.42;93904.53;4992211;28;20025;-82
2022/07/11 02:26:16;;;;;;;1.25;1.05;;;;;;;14.99;49.73;93908.00;4990717;28;20479;-82
2022/07/11 02:28:42;;;;;;;1.05;0.95;;;;;;;15.04;49.94;93939.13;4991604;28;20030;-82
2022/07/11 02:31:08;;;;;;;1.73;1.60;;;;;;;14.86;49.99;93919.06;4991075;28;20552;-82
2022/07/11 02:33:33;;;;;;;1.20;1.10;;;;;;;14.45;50.21;93890.63;4997656;28;20088;-83
2022/07/11 02:35:59;;;;;;;1.00;0.95;;;;;;;14.81;50.49;93941.50;4992505;28;20030;-82
2022/07/11 02:38:25;;;;;;;1.20;1.10;;;;;;;14.88;49.99;93932.88;4989061;28;20030;-80
2022/07/11 02:40:50;;;;;;;1.67;1.58;;;;;;;14.76;49.47;93885.50;4994101;28;20109;-80
2022/07/11 02:43:15;;;;;;;3.35;1.10;;;;;;;15.03;49.46;93938.31;4993368;28;20557;-80
2022/07/11 02:45:41;;;;;;;1.75;0.90;;;;;;;14.76;49.75;93908.81;4992914;28;20021;-80
2022/07/11 02:48:06;;;;;;;2.90;1.25;;;;;;;14.94;49.93;93936.91;4991418;28;20112;-81
2022/07/11 02:50:31;;;;;;;1.90;1.10;;;;;;;14.70;49.90;93915.50;4992814;28;20022;-80
2022/07/11 02:52:57;;;;;;;1.17;1.00;;;;;;;14.98;50.05;93927.06;4990409;28;20022;-81
2022/07/11 02:55:22;;;;;;;5.93;1.30;;;;;;;14.85;49.55;93925.53;4990795;28;20026;-81
2022/07/11 02:57:48;;;;;;;0.80;0.80;;;;;;;14.78;49.79;93919.94;5006995;28;20030;-81
2022/07/11 03:00:16;;;;;;;1.15;0.90;;;;;;;15.15;48.93;93953.63;4990315;28;20029;-80
2022/07/11 03:02:41;;;;;;;1.33;0.93;;;;;;;15.04;48.99;93947.94;4989953;28;20030;-80
2022/07/11 03:05:08;;;;;;;2.05;0.70;;;;;;;14.90;48.85;93933.34;4990475;28;20030;-81
2022/07/11 03:07:33;;;;;;;1.13;1.00;;;;;;;14.86;49.30;93932.44;4992585;28;20034;-81
2022/07/11 03:09:59;;;;;;;2.42;1.00;;;;;;;14.32;49.41;93876.47;4991016;28;20723;-81
2022/07/11 03:12:24;;;;;;;3.22;1.17;;;;;;;14.89;49.44;93943.25;4991519;28;20439;-81
2022/07/11 03:14:49;;;;;;;1.38;0.95;;;;;;;15.12;49.02;93937.41;4990893;28;20489;-81
2022/07/11 03:17:19;;;;;;;1.67;0.90;;;;;;;15.23;48.66;93931.25;4993132;28;20045;-81
2022/07/11 03:19:46;;;;;;;1.48;1.00;;;;;;;15.41;48.46;93956.66;4992566;28;20022;-81
2022/07/11 03:22:12;;;;;;;1.60;0.93;;;;;;;15.32;47.61;93950.66;4991831;28;20034;-81
2022/07/11 03:24:38;;;;;;;1.63;1.05;;;;;;;15.42;48.06;93944.03;4991316;28;20080;-81
2022/07/11 03:27:03;;;;;;;0.70;0.70;;;;;;;15.48;47.68;93953.44;4991164;28;20048;-80
2022/07/11 03:29:29;;;;;;;2.15;0.80;;;;;;;15.10;47.88;93924.38;4990471;28;20124;-81
2022/07/11 03:31:54;;;;;;;1.48;1.30;;;;;;;15.24;48.04;93940.88;4992149;28;20394;-81
2022/07/11 03:34:20;;;;;;;0.90;0.80;;;;;;;15.29;48.18;93951.34;4991805;28;20552;-80
2022/07/11 03:36:48;;;;;;;1.33;1.02;;;;;;;15.06;48.56;93944.91;4989287;28;20026;-81
2022/07/11 03:39:14;;;;;;;3.03;1.10;;;;;;;15.14;48.65;93960.09;4991873;28;20193;-80
2022/07/11 03:41:40;;;;;;;5.20;1.20;;;;;;;15.16;48.78;93952.47;4990706;28;20026;-80
2022/07/11 03:44:05;;;;;;;3.45;1.40;;;;;;;14.99;49.00;93928.63;4992840;28;20033;-81
2022/07/11 03:46:31;;;;;;;1.15;1.00;;;;;;;14.78;49.53;93946.72;4992135;28;20048;-80
2022/07/11 03:48:56;;;;;;;1.65;1.10;;;;;;;14.89;50.10;93969.25;4992734;28;20022;-81
2022/07/11 03:51:22;;;;;;;2.17;1.17;;;;;;;14.92;50.32;93973.94;4988640;28;20026;-80
2022/07/11 03:53:48;;;;;;;2.25;1.20;;;;;;;14.71;50.61;93957.22;4990711;28;20383;-80
2022/07/11 03:56:16;;;;;;;1.92;1.63;;;;;;;14.69;50.38;93944.16;4991354;28;20157;-80
2022/07/11 03:58:42;;;;;;;2.92;1.42;;;;;;;14.83;50.78;93975.94;4990588;28;20347;-80
2022/07/11 04:01:07;;;;;;;1.40;1.30;;;;;;;14.80;50.65;93963.25;4994896;28;20509;-80
2022/07/11 04:03:32;;;;;;;2.63;1.23;;;;;;;14.54;51.07;93964.34;4994355;28;20080;-81
2022/07/11 04:05:58;;;;;;;2.05;1.50;;;;;;;14.42;51.13;93945.56;5008795;28;20581;-80
2022/07/11 04:08:23;;;;;;;2.40;1.40;;;;;;;14.61;51.86;93979.88;4993417;28;20045;-80
2022/07/11 04:10:48;;;;;;;2.47;1.60;;;;;;;14.51;52.51;93991.75;4993352;28;20108;-80
2022/07/11 04:13:14;;;;;;;2.28;1.20;;;;;;;14.26;53.20;93968.75;4995872;28;20109;-81
2022/07/11 04:15:39;;;;;;;3.63;1.60;;;;;;;14.49;53.06;93991.28;4993261;28;20052;-80
2022/07/11 04:18:05;;;;;;;4.35;1.80;;;;;;;14.52;52.91;93981.84;4994121;28;20373;-80
2022/07/11 04:20:30;;;;;;;3.63;1.38;;;;;;;14.69;53.33;94007.63;4994539;28;20041;-81
2022/07/11 04:22:55;;;;;;;1.63;1.52;;;;;;;14.67;53.53;94007.94;4996328;28;20529;-81
2022/07/11 04:25:21;;;;;;;2.00;1.20;;;;;;;14.72;53.38;94001.59;4994280;28;20100;-80
2022/07/11 04:27:46;;;;;;;2.55;1.67;;;;;;;14.71;53.40;94008.09;4994694;28;20558;-80
2022/07/11 04:30:12;;;;;;;3.20;1.67;;;;;;;14.66;53.68;93976.97;5009419;28;20541;-80
2022/07/11 04:32:37;;;;;;;3.20;1.98;;;;;;;14.59;53.38;93982.06;4993992;28;20470;-81
2022/07/11 04:35:03;;;;;;;4.15;1.67;;;;;;;14.76;53.85;94005.19;4994931;28;20620;-81
2022/07/11 04:37:29;;;;;;;1.52;1.40;;;;;;;14.85;53.03;94005.84;4994659;28;20034;-81
2022/07/11 04:39:54;;;;;;;6.32;1.70;;;;;;;14.97;51.94;93995.13;4994446;28;20033;-80
2022/07/11 04:42:20;;;;;;;2.03;1.38;;;;;;;15.12;52.39;94010.53;4994943;28;20112;-80
2022/07/11 04:44:45;;;;;;;1.67;1.35;;;;;;;15.07;52.37;94010.75;4993896;28;20018;-80
2022/07/11 04:47:11;;;;;;;3.28;1.30;;;;;;;14.99;52.32;93996.38;4994320;28;20414;-80
2022/07/11 04:49:37;;;;;;;2.33;1.63;;;;;;;15.20;52.60;94023.03;4992106;28;20026;-81
2022/07/11 04:52:03;;;;;;;1.77;1.30;;;;;;;15.39;51.91;94009.84;4993975;28;20425;-81
2022/07/11 04:54:28;;;;;;;2.15;1.40;;;;;;;14.99;51.71;93960.78;4991755;28;20018;-80
2022/07/11 04:56:54;;;;;;;2.17;1.50;;;;;;;15.08;51.14;93956.06;4994519;28;20133;-83
2022/07/11 04:59:19;;;;;;;1.58;1.10;;;;;;;15.53;51.33;94014.06;5006903;28;20501;-82
2022/07/11 05:01:45;;;;;;;2.45;1.55;;;;;;;15.40;51.64;93995.28;4993606;28;20542;-83
2022/07/11 05:04:10;;;;;;;2.22;1.42;;;;;;;15.39;51.48;93972.31;4992079;28;20030;-82
2022/07/11 05:06:35;;;;;;;1.73;1.50;;;;;;;15.61;50.80;94015.81;4993754;28;20497;-83
2022/07/11 05:09:02;;;;;;;2.45;1.60;;;;;;;15.35;50.74;94003.56;4991413;28;20088;-83
2022/07/11 05:11:27;;;;;;;1.73;1.20;;;;;;;15.33;51.34;94021.13;4995802;28;20029;-82
2022/07/11 05:13:53;;;;;;;1.83;1.23;;;;;;;15.48;50.80;94023.13;4991478;28;20084;-83
2022/07/11 05:16:18;;;;;;;2.05;1.77;;;;;;;15.45;50.93;94039.88;4994511;28;20309;-82
2022/07/11 05:18:44;;;;;;;2.70;1.30;;;;;;;15.24;50.94;94025.81;4992010;28;20030;-82
2022/07/11 05:21:09;;;;;;;2.80;1.15;;;;;;;15.44;50.58;94036.44;4992637;28;20034;-82
2022/07/11 05:23:34;;;;;;;2.65;1.63;;;;;;;15.46;50.74;94020.78;5006480;28;20037;-83
2022/07/11 05:26:00;;;;;;;1.98;1.30;;;;;;;15.64;50.30;94002.53;4992130;28;20018;-81
2022/07/11 05:28:25;;;;;;;2.70;1.48;;;;;;;16.09;48.77;94028.28;4988789;28;20397;-82
2022/07/11 05:30:51;;;;;;;2.22;1.88;;;;;;;16.35;48.31;94038.59;4990492;28;20105;-83
2022/07/11 05:33:16;;;;;;;1.67;1.30;;;;;;;16.48;47.01;94029.34;5006593;28;20025;-83
2022/07/11 05:35:42;;;;;;;1.38;1.00;;;;;;;16.20;45.92;94014.03;4989779;28;20036;-82
2022/07/11 05:38:07;;;;;;;2.47;1.05;;;;;;;16.25;46.05;94000.38;4989704;28;20036;-83
2022/07/11 05:40:33;;;;;;;4.20;1.85;;;;;;;16.43;46.72;94035.00;4991692;28;20032;-82
2022/07/11 05:42:58;;;;;;;3.08;1.60;;;;;;;16.06;47.90;94005.63;4991054;28;20231;-82
2022/07/11 05:45:24;;;;;;;2.08;1.42;;;;;;;16.19;47.86;94012.47;4993009;28;20509;-82
2022/07/11 05:47:49;;;;;;;1.30;1.20;;;;;;;16.01;46.24;94013.13;4992324;28;20025;-83
2022/07/11 05:50:14;;;;;;;1.35;1.10;;;;;;;16.19;46.21;94028.56;4991764;28;20121;-81
2022/07/11 05:52:41;;;;;;;2.50;1.20;;;;;;;16.00;47.00;94001.59;4990293;28;20034;-81
2022/07/11 05:55:06;;;;;;;2.25;1.05;;;;;;;16.22;45.96;94013.72;4988747;28;20417;-82
2022/07/11 05:57:32;;;;;;;1.88;0.93;;;;;;;15.98;45.02;94017.28;4990765;28;20088;-82
2022/07/11 05:59:57;;;;;;;2.38;1.10;;;;;;;16.25;43.69;94046.00;4990635;28;20407;-82
2022/07/11 06:02:23;;;;;;;1.17;1.00;;;;;;;15.94;44.17;93997.59;4989499;28;20068;-83
2022/07/11 06:04:48;;;;;;;2.30;1.25;;;;;;;15.87;44.50;94038.44;4992061;28;20057;-82
2022/07/11 06:08:40;;;;;;;1.95;1.00;;;;;;;16.00;44.93;94039.16;4991608;28;20464;-82
2022/07/11 06:09:59;;;;;;;;;;;;;;;15.96;46.31;94038.28;4989474;28;20155;-83
2022/07/11 06:12:24;;;;;;;1.35;0.90;;;;;;;15.49;47.31;94007.81;4994097;28;20001;-82
2022/07/11 06:14:52;;;;;;;1.20;1.10;;;;;;;15.75;45.65;94043.81;4993677;28;20034;-82
2022/07/11 06:17:18;;;;;;;2.08;1.45;;;;;;;15.59;46.54;94043.00;4990523;28;20060;-82
2022/07/11 06:19:43;;;;;;;1.55;1.45;;;;;;;15.39;47.32;94007.16;4991393;28;20466;-82
2022/07/11 06:22:08;;;;;;;1.20;1.10;;;;;;;15.47;46.96;93970.63;4991668;28;20045;-81
2022/07/11 06:24:34;;;;;;;1.13;1.00;;;;;;;15.80;45.26;94021.34;4988749;28;20026;-82
2022/07/11 06:27:00;;;;;;;0.80;0.80;;;;;;;16.04;46.15;94032.00;4989499;28;20279;-82
2022/07/11 06:29:26;;;;;;;1.20;0.93;;;;;;;16.43;45.30;94051.09;4991672;28;20022;-81
2022/07/11 06:31:52;;;;;;;1.52;0.82;;;;;;;16.51;42.31;94052.84;5005221;28;20141;-83
2022/07/11 06:34:18;;;;;;;0.88;0.80;;;;;;;16.02;41.60;93993.22;4989191;28;20075;-82
2022/07/11 06:36:44;;;;;;;0.98;0.70;;;;;;;16.36;40.91;94046.31;4990269;28;20597;-83
2022/07/11 06:39:09;;;;;;;0.70;0.70;;;;;;;15.99;39.89;94010.03;5006449;28;20469;-82
2022/07/11 06:41:34;;;;;;;1.50;0.70;;;;;;;16.19;41.53;94015.16;4989474;28;20062;-83
2022/07/11 06:44:00;;;;;;;1.77;0.93;;;;;;;16.54;40.03;94060.97;4990881;28;20030;-81
2022/07/11 06:46:26;;;;;;;0.68;0.68;;;;;;;15.85;39.77;94008.50;4988444;28;20056;-82
2022/07/11 06:48:52;;;;;;;0.60;0.60;;;;;;;16.25;40.16;94048.69;4991092;28;20029;-83
2022/07/11 06:51:17;;;;;;;1.55;0.63;;;;;;;16.10;39.74;94021.81;4989952;28;20398;-82
2022/07/11 06:53:43;;;;;;;0.93;0.70;;;;;;;16.26;40.04;94025.31;4992710;28;20489;-82
2022/07/11 06:56:08;;;;;;;0.70;0.70;;;;;;;16.04;39.88;94029.31;4990677;28;20144;-82
2022/07/11 06:58:34;;;;;;;1.58;0.70;;;;;;;15.89;39.25;94013.94;5005235;28;20018;-82
2022/07/11 07:01:04;;;;;;;0.57;0.57;;;;;;;16.13;39.09;94021.13;4992458;28;20034;-81
2022/07/11 07:03:31;;;;;;;0.50;0.50;;;;;;;15.88;38.98;93991.72;4990941;28;20026;-82
2022/07/11 07:05:57;;;;;;;3.25;0.70;;;;;;;16.15;38.88;94034.97;4989071;28;20222;-82
2022/07/11 07:08:27;;;;;;;1.27;0.82;;;;;;;15.86;37.79;93990.50;4988388;28;20592;-82
2022/07/11 07:10:53;;;;;;;0.95;0.68;;;;;;;15.92;38.61;94031.28;4992313;28;20158;-82
2022/07/11 07:13:20;;;;;;;3.30;0.98;;;;;;;15.89;39.46;94040.75;4989904;28;20038;-82
2022/07/11 07:15:46;;;;;;;2.75;0.90;;;;;;;15.78;39.70;94010.19;4992567;28;20095;-81
2022/07/11 07:18:12;;;;;;;1.13;0.73;;;;;;;15.86;39.02;94017.31;4991908;28;20080;-82
2022/07/11 07:20:37;;;;;;;1.45;0.77;;;;;;;15.93;40.41;94035.53;4990113;28;20100;-82
2022/07/11 07:23:03;;;;;;;3.30;0.75;;;;;;;15.83;41.36;94001.91;5005577;28;20450;-80
2022/07/11 07:25:28;;;;;;;1.90;0.80;;;;;;;15.57;41.75;93972.06;4990853;28;20026;-82
2022/07/11 07:27:54;;;;;;;1.15;0.73;;;;;;;15.93;41.75;94028.25;5005090;28;20562;-82
2022/07/11 07:30:19;;;;;;;2.83;0.95;;;;;;;16.03;43.22;94025.09;4988724;28;20026;-81
2022/07/11 07:32:45;;;;;;;0.77;0.77;;;;;;;16.04;42.05;94023.94;4992985;28;20041;-82
2022/07/11 07:35:10;;;;;;;2.40;0.80;;;;;;;15.90;42.08;94023.56;4998043;28;20030;-83
2022/07/11 07:37:36;;;;;;;2.53;0.77;;;;;;;16.04;44.18;94023.16;4994292;28;20077;-82
2022/07/11 07:40:01;;;;;;;2.30;0.80;;;;;;;15.94;44.10;94002.22;4988514;28;20037;-82
2022/07/11 07:42:26;;;;;;;1.00;0.90;;;;;;;15.99;43.67;93986.63;4989847;28;20353;-82
2022/07/11 07:44:52;;;;;;;1.50;1.20;;;;;;;16.25;42.57;94029.91;4989769;28;20014;-82
2022/07/11 07:47:17;;;;;;;2.35;0.95;;;;;;;16.14;42.78;94014.63;5003218;28;20030;-83
2022/07/11 07:49:43;;;;;;;2.55;2.08;;;;;;;16.08;43.31;94014.13;4989810;28;20030;-82
2022/07/11 07:52:08;;;;;;;2.13;0.75;;;;;;;16.20;43.70;94022.09;4986431;28;20465;-81
2022/07/11 07:54:34;;;;;;;0.75;0.70;;;;;;;16.04;43.23;94023.94;4976885;28;20026;-82
2022/07/11 07:56:59;;;;;;;4.07;1.92;;;;;;;15.89;43.28;94030.03;4979106;28;20029;-81
2022/07/11 07:59:25;;;;;;;1.02;0.85;;;;;;;15.62;43.49;93996.72;4988206;28;20777;-81
2022/07/11 08:01:51;;;;;;;2.60;1.02;;;;;;;15.60;43.09;94020.41;4988641;28;20537;-82
2022/07/11 08:04:17;;;;;;;0.60;0.60;;;;;;;15.46;43.94;94010.06;4986663;28;20474;-82
2022/07/11 08:06:43;;;;;;;3.55;0.90;;;;;;;15.51;44.46;94017.09;4987980;28;20080;-83
2022/07/11 08:09:09;;;;;;;0.75;0.73;;;;;;;15.78;44.60;94045.06;4985351;28;20437;-80
2022/07/11 08:11:35;;;;;;;1.90;0.70;;;;;;;15.95;43.97;94025.22;4988460;28;20023;-83
2022/07/11 08:14:03;;;;;;;2.35;0.90;;;;;;;15.92;43.81;94032.06;4987784;28;20501;-82
2022/07/11 08:16:30;;;;;;;1.55;0.82;;;;;;;15.63;42.72;93989.47;4989538;28;20054;-83
2022/07/11 08:18:56;;;;;;;2.38;0.70;;;;;;;16.10;44.12;94033.31;4990351;28;20032;-83
2022/07/11 08:21:22;;;;;;;1.33;0.70;;;;;;;15.97;42.92;94029.13;4989229;28;20134;-82
2022/07/11 08:23:48;;;;;;;1.88;0.70;;;;;;;15.64;42.20;94010.59;4991004;28;20053;-82
2022/07/11 08:26:13;;;;;;;0.98;0.90;;;;;;;15.31;42.46;93981.25;5001393;28;20495;-82
2022/07/11 08:28:39;;;;;;;3.95;0.90;;;;;;;15.46;42.07;94026.13;4985028;28;20033;-81
2022/07/11 08:31:04;;;;;;;3.78;0.80;;;;;;;15.36;42.19;94029.25;5002614;28;20124;-81
2022/07/11 08:33:30;;;;;;;5.70;0.98;;;;;;;15.42;43.50;94014.50;4990484;28;20109;-82
2022/07/11 08:35:55;;;;;;;0.82;0.80;;;;;;;15.29;43.49;93999.56;4985905;28;20474;-82
2022/07/11 08:38:21;;;;;;;1.65;0.90;;;;;;;15.23;43.03;94000.91;4988595;28;20036;-82
2022/07/11 08:40:49;;;;;;;0.70;0.70;;;;;;;15.57;42.62;94036.38;4990476;28;20509;-82
2022/07/11 08:43:17;;;;;;;1.70;1.00;;;;;;;15.61;43.10;94026.56;4987114;28;20576;-82
2022/07/11 08:45:42;;;;;;;1.25;0.60;;;;;;;15.43;42.99;93978.56;4989393;28;20026;-81
2022/07/11 08:48:09;;;;;;;0.65;0.63;;;;;;;15.35;42.11;94013.53;4987717;28;20028;-82
2022/07/11 08:50:35;;;;;;;0.52;0.52;;;;;;;15.76;42.82;94037.34;4986177;28;20034;-82
2022/07/11 08:53:05;;;;;;;4.90;1.15;;;;;;;15.83;42.79;94028.72;4991967;28;20026;-81
2022/07/11 08:55:30;;;;;;;0.75;0.75;;;;;;;15.70;42.87;94038.69;4987531;28;20470;-82
2022/07/11 08:57:56;;;;;;;3.60;0.82;;;;;;;15.37;42.07;93995.97;4989138;28;20076;-81
2022/07/11 09:00:21;;;;;;;0.93;0.70;;;;;;;15.36;41.43;94031.94;4987406;28;20036;-81
2022/07/11 09:02:48;;;;;;;2.78;0.70;;;;;;;15.50;42.23;94047.69;4990024;28;20037;-81
2022/07/11 09:05:14;;;;;;;0.85;0.68;;;;;;;15.11;42.38;94008.94;5001044;28;20030;-82
2022/07/11 09:07:48;;;;;;;1.13;0.70;;;;;;;15.22;42.11;94028.81;4990688;28;20072;-82
2022/07/11 09:10:15;;;;;;;1.13;0.70;;;;;;;15.34;42.88;94028.81;4987412;28;20026;-82
2022/07/11 09:13:02;;;;;;;1.00;0.77;;;;;;;15.48;42.04;94049.16;5002355;28;20033;-81
2022/07/11 09:15:35;;;;;;;6.90;1.02;;;;;;;15.37;42.17;94044.22;4988581;28;20026;-81
2022/07/11 09:18:00;;;;;;;0.60;0.60;;;;;;;15.48;41.56;94030.38;4988640;28;20030;-81
2022/07/11 09:25:19;;;;;;;1.40;0.85;;;;;;;15.30;41.77;94019.13;4991085;28;20454;-82
2022/07/11 09:26:05;;;;;;;1.00;0.80;;;;;;;15.69;42.25;94055.16;4990978;28;19940;-83
2022/07/11 09:28:30;;;;;;;1.58;0.65;;;;;;;15.77;42.23;94054.22;4987953;28;20571;-82
2022/07/11 09:30:56;;;;;;;2.05;0.60;;;;;;;15.91;42.08;94041.22;4981286;28;20568;-81
2022/07/11 09:33:21;;;;;;;1.92;0.65;;;;;;;15.98;40.89;94041.44;4977402;28;20026;-82
2022/07/11 09:35:47;;;;;;;2.05;0.90;;;;;;;15.42;41.56;93968.94;4984381;28;20598;-81
2022/07/11 09:38:17;;;;;;;0.95;0.60;;;;;;;15.73;40.79;94023.84;4988308;28;20497;-82
2022/07/11 09:40:44;;;;;;;0.65;0.60;;;;;;;15.94;41.08;94058.53;4988322;28;20036;-82
2022/07/11 09:43:09;;;;;;;0.60;0.60;;;;;;;15.99;41.38;94052.94;4990468;28;20038;-82
2022/07/11 09:45:35;;;;;;;2.15;0.73;;;;;;;15.72;41.01;94043.72;4989378;28;20087;-82
2022/07/11 09:48:12;;;;;;;3.90;1.45;;;;;;;15.92;41.66;94040.09;4986422;28;20049;-81
2022/07/11 09:50:41;;;;;;;0.88;0.70;;;;;;;15.88;40.57;94042.69;4988525;28;20411;-81
2022/07/11 09:53:14;;;;;;;2.05;0.70;;;;;;;15.93;40.39;94049.72;4986761;28;20030;-82
2022/07/11 09:55:45;;;;;;;1.92;0.90;;;;;;;15.72;40.05;94004.28;5000787;28;20880;-81
2022/07/11 09:58:14;;;;;;;5.15;0.85;;;;;;;15.81;40.80;94057.78;4987683;28;20041;-80
2022/07/11 10:00:40;;;;;;;0.68;0.68;;;;;;;15.88;41.58;94047.28;4984887;28;20904;-81
2022/07/11 10:03:07;;;;;;;0.70;0.70;;;;;;;16.08;41.87;94049.00;4985675;28;20555;-81
2022/07/11 10:05:33;;;;;;;1.20;1.10;;;;;;;15.89;41.24;94027.34;4985737;28;20129;-82
2022/07/11 10:08:00;;;;;;;0.90;0.60;;;;;;;16.21;41.33;94049.72;4984568;28;20507;-82
2022/07/11 10:10:27;;;;;;;1.55;0.70;;;;;;;16.16;40.96;94029.28;4985750;28;20034;-82
2022/07/11 10:12:54;;;;;;;0.85;0.77;;;;;;;16.04;41.15;94040.03;4982115;28;20022;-82
2022/07/11 10:15:23;;;;;;;1.05;0.90;;;;;;;15.84;40.27;94041.78;4984995;28;20041;-81
2022/07/11 10:18:07;;;;;;;1.88;0.77;;;;;;;16.00;41.48;94052.56;4985765;28;20041;-82
2022/07/11 10:20:42;;;;;;;1.55;1.40;;;;;;;15.75;40.52;94019.69;4985205;28;20120;-82
2022/07/11 10:23:23;;;;;;;5.15;1.13;;;;;;;15.71;39.71;94018.81;4985819;28;20762;-82
2022/07/11 10:26:04;;;;;;;1.85;0.98;;;;;;;16.02;39.93;94036.16;4988157;28;20022;-80
2022/07/11 10:28:55;;;;;;;1.23;0.88;;;;;;;15.94;39.70;94051.25;4985061;28;20025;-82
2022/07/11 10:31:25;;;;;;;2.75;0.88;;;;;;;15.96;40.02;94038.28;4986592;28;20157;-82
2022/07/11 10:34:03;;;;;;;2.75;0.88;;;;;;;16.17;40.55;94065.72;4983877;28;20060;-82
2022/07/11 10:36:32;;;;;;;1.63;0.80;;;;;;;16.15;38.88;94061.81;4986686;28;20141;-81
2022/07/11 10:39:28;;;;;;;1.30;0.80;;;;;;;16.07;39.13;94060.06;4984429;28;20021;-82
2022/07/11 10:41:55;;;;;;;1.42;1.33;;;;;;;15.93;39.23;94043.56;4980041;28;20622;-81
2022/07/11 10:44:21;;;;;;;1.60;0.90;;;;;;;16.08;39.57;94059.72;4977459;28;20187;-80
2022/07/11 10:46:46;;;;;;;1.42;1.15;;;;;;;15.89;39.85;94043.44;4979679;28;20275;-82
2022/07/11 10:49:12;;;;;;;1.85;0.95;;;;;;;16.10;40.10;94064.72;4985564;28;20081;-82
2022/07/11 10:51:44;;;;;;;1.77;0.95;;;;;;;16.28;40.30;94076.75;4993496;28;20026;-82
2022/07/11 10:54:15;;;;;;;0.70;0.70;;;;;;;16.44;38.52;94076.78;4988662;28;20085;-82
2022/07/11 10:56:47;;;;;;;1.05;0.80;;;;;;;16.40;38.77;94078.63;4986817;28;20400;-82
2022/07/11 10:59:13;;;;;;;1.67;1.08;;;;;;;16.40;38.45;94070.56;4968285;28;20113;-82
2022/07/11 11:02:04;;;;;;;1.70;0.90;;;;;;;16.30;39.13;94056.50;4998956;28;20030;-82
2022/07/11 11:04:47;;;;;;;1.10;0.82;;;;;;;16.16;39.27;94018.53;4986738;28;20437;-82
2022/07/11 11:07:34;;;;;;;0.70;0.70;;;;;;;16.31;38.29;94050.03;4986891;28;20312;-82
2022/07/11 11:10:03;;;;;;;2.03;1.00;;;;;;;16.42;38.58;94060.28;4990124;28;20040;-81
2022/07/11 11:13:04;;;;;;;1.02;0.93;;;;;;;16.44;38.17;94079.47;4991353;28;20700;-80
2022/07/11 11:15:51;;;;;;;0.80;0.80;;;;;;;16.43;38.89;94080.63;4984520;28;20623;-80
2022/07/11 11:18:24;;;;;;;1.20;1.20;;;;;;;16.41;39.06;94069.44;4987480;28;20033;-82
2022/07/11 11:21:09;;;;;;;0.70;0.70;;;;;;;16.55;38.34;94070.59;5000161;28;20128;-81
2022/07/11 11:23:59;;;;;;;1.00;0.80;;;;;;;16.74;39.08;94068.03;4985905;28;20037;-82
2022/07/11 11:26:42;;;;;;;4.88;0.90;;;;;;;16.67;38.85;94067.06;4988893;28;20030;-81
2022/07/11 11:29:08;;;;;;;2.08;0.85;;;;;;;16.68;39.71;94063.25;4989884;28;20038;-82
2022/07/11 11:31:33;;;;;;;1.02;0.80;;;;;;;16.66;37.55;94052.88;4988686;28;20030;-82
2022/07/11 11:34:01;;;;;;;1.80;1.58;;;;;;;16.71;37.92;94076.00;4989629;28;22106;-81
2022/07/11 11:36:27;;;;;;;0.80;0.80;;;;;;;16.59;37.47;94054.56;4991454;28;20030;-81
2022/07/11 11:38:53;;;;;;;1.15;1.00;;;;;;;16.89;38.41;94063.78;4989261;28;20916;-82